sensor_id;sensor_type;location;lat;lon;timestamp;temperature;humidity
11660;DHT22;5886;58.356;12.744;2022-07-29T00:00:56;10.40;99.90
11660;DHT22;5886;58.356;12.744;2022-07-29T00:03:21;10.30;99.90
11660;DHT22;5886;58.356;12.744;2022-07-29T00:05:47;10.30;99.90
11660;DHT22;5886;58.356;12.744;2022-07-29T00:08:13;10.20;99.90
11660;DHT22;5886;58.356;12.744;2022-07-29T00:10:41;10.10;99.90
11660;DHT22;5886;58.356;12.744;2022-07-29T00:13:07;10.00;99.90
11660;DHT22;5886;58.356;12.744;2022-07-29T00:15:33;9.90;99.90
11660;DHT22;5886;58.356;12.744;2022-07-29T00:17:59;9.80;99.90
11660;DHT22;5886;58.356;12.744;2022-07-29T00:20:25;9.80;99.90
11660;DHT22;5886;58.356;12.744;2022-07-29T00:22:51;9.70;99.90
11660;DHT22;5886;58.356;12.744;2022-07-29T00:25:17;9.70;99.90
11660;DHT22;5886;58.356;12.744;2022-07-29T00:27:43;9.70;99.90
11660;DHT22;5886;58.356;12.744;2022-07-29T00:30:09;9.80;99.90
11660;DHT22;5886;58.356;12.744;2022-07-29T00:32:35;9.80;99.90
11660;DHT22;5886;58.356;12.744;2022-07-29T00:35:00;9.70;99.90
11660;DHT22;5886;58.356;12.744;2022-07-29T00:37:45;9.60;99.90
11660;DHT22;5886;58.356;12.744;2022-07-29T00:40:11;9.60;99.90
11660;DHT22;5886;58.356;12.744;2022-07-29T00:42:57;9.50;99.90
11660;DHT22;5886;58.356;12.744;2022-07-29T00:45:23;9.40;99.90
11660;DHT22;5886;58.356;12.744;2022-07-29T00:47:49;9.40;99.90
11660;DHT22;5886;58.356;12.744;2022-07-29T00:50:15;9.40;99.90
11660;DHT22;5886;58.356;12.744;2022-07-29T00:52:41;9.40;99.90
11660;DHT22;5886;58.356;12.744;2022-07-29T00:55:10;9.40;99.90
11660;DHT22;5886;58.356;12.744;2022-07-29T00:57:37;9.40;99.90
11660;DHT22;5886;58.356;12.744;2022-07-29T01:00:04;9.40;99.90
11660;DHT22;5886;58.356;12.744;2022-07-29T01:02:31;9.40;99.90
11660;DHT22;5886;58.356;12.744;2022-07-29T01:04:57;9.30;99.90
11660;DHT22;5886;58.356;12.744;2022-07-29T01:07:26;9.20;99.90
11660;DHT22;5886;58.356;12.744;2022-07-29T01:09:53;9.20;99.90
11660;DHT22;5886;58.356;12.744;2022-07-29T01:12:25;9.20;99.90
11660;DHT22;5886;58.356;12.744;2022-07-29T01:14:53;9.20;99.90
11660;DHT22;5886;58.356;12.744;2022-07-29T01:17:36;9.10;99.90
11660;DHT22;5886;58.356;12.744;2022-07-29T01:25:45;9.10;99.90
11660;DHT22;5886;58.356;12.744;2022-07-29T01:31:54;9.00;99.90
11660;DHT22;5886;58.356;12.744;2022-07-29T01:34:18;9.00;99.90
11660;DHT22;5886;58.356;12.744;2022-07-29T01:36:55;9.00;99.90
11660;DHT22;5886;58.356;12.744;2022-07-29T01:39:31;9.00;99.90
11660;DHT22;5886;58.356;12.744;2022-07-29T01:45:23;8.90;99.90
11660;DHT22;5886;58.356;12.744;2022-07-29T01:48:16;8.80;99.90
11660;DHT22;5886;58.356;12.744;2022-07-29T01:50:49;8.80;99.90
11660;DHT22;5886;58.356;12.744;2022-07-29T01:53:29;8.70;99.90
11660;DHT22;5886;58.356;12.744;2022-07-29T01:55:57;8.70;99.90
11660;DHT22;5886;58.356;12.744;2022-07-29T01:58:27;8.60;99.90
11660;DHT22;5886;58.356;12.744;2022-07-29T02:00:56;8.60;99.90
11660;DHT22;5886;58.356;12.744;2022-07-29T02:03:23;8.50;99.90
11660;DHT22;5886;58.356;12.744;2022-07-29T02:05:50;8.50;99.90
11660;DHT22;5886;58.356;12.744;2022-07-29T02:08:18;8.50;99.90
11660;DHT22;5886;58.356;12.744;2022-07-29T02:10:46;8.50;99.90
11660;DHT22;5886;58.356;12.744;2022-07-29T02:13:13;8.40;99.90
11660;DHT22;5886;58.356;12.744;2022-07-29T02:15:42;8.40;99.90
11660;DHT22;5886;58.356;12.744;2022-07-29T02:18:15;8.40;99.90
11660;DHT22;5886;58.356;12.744;2022-07-29T02:20:47;8.40;99.90
11660;DHT22;5886;58.356;12.744;2022-07-29T02:23:15;8.40;99.90
11660;DHT22;5886;58.356;12.744;2022-07-29T02:25:44;8.30;99.90
11660;DHT22;5886;58.356;12.744;2022-07-29T02:28:11;8.30;99.90
11660;DHT22;5886;58.356;12.744;2022-07-29T02:30:41;8.30;99.90
11660;DHT22;5886;58.356;12.744;2022-07-29T02:33:09;8.20;99.90
11660;DHT22;5886;58.356;12.744;2022-07-29T02:35:40;8.20;99.90
11660;DHT22;5886;58.356;12.744;2022-07-29T02:38:07;8.20;99.90
11660;DHT22;5886;58.356;12.744;2022-07-29T02:40:53;8.10;99.90
11660;DHT22;5886;58.356;12.744;2022-07-29T02:43:21;8.10;99.90
11660;DHT22;5886;58.356;12.744;2022-07-29T02:45:52;8.10;99.90
11660;DHT22;5886;58.356;12.744;2022-07-29T02:48:22;8.10;99.90
11660;DHT22;5886;58.356;12.744;2022-07-29T02:50:55;8.10;99.90
11660;DHT22;5886;58.356;12.744;2022-07-29T02:53:26;8.10;99.90
11660;DHT22;5886;58.356;12.744;2022-07-29T02:56:00;8.20;99.90
11660;DHT22;5886;58.356;12.744;2022-07-29T02:58:42;8.20;99.90
11660;DHT22;5886;58.356;12.744;2022-07-29T03:01:23;8.30;99.90
11660;DHT22;5886;58.356;12.744;2022-07-29T03:03:53;8.30;99.90
11660;DHT22;5886;58.356;12.744;2022-07-29T03:06:21;8.30;99.90
11660;DHT22;5886;58.356;12.744;2022-07-29T03:08:51;8.30;99.90
11660;DHT22;5886;58.356;12.744;2022-07-29T03:11:17;8.30;99.90
11660;DHT22;5886;58.356;12.744;2022-07-29T03:13:44;8.40;99.90
11660;DHT22;5886;58.356;12.744;2022-07-29T03:16:11;8.40;99.90
11660;DHT22;5886;58.356;12.744;2022-07-29T03:18:38;8.40;99.90
11660;DHT22;5886;58.356;12.744;2022-07-29T03:21:04;8.80;99.90
11660;DHT22;5886;58.356;12.744;2022-07-29T03:23:30;9.50;99.90
11660;DHT22;5886;58.356;12.744;2022-07-29T03:25:57;10.40;99.90
11660;DHT22;5886;58.356;12.744;2022-07-29T03:28:24;11.40;99.90
11660;DHT22;5886;58.356;12.744;2022-07-29T03:30:52;12.20;99.90
11660;DHT22;5886;58.356;12.744;2022-07-29T03:33:18;13.10;99.90
11660;DHT22;5886;58.356;12.744;2022-07-29T03:35:44;13.80;99.90
11660;DHT22;5886;58.356;12.744;2022-07-29T03:38:11;14.60;99.90
11660;DHT22;5886;58.356;12.744;2022-07-29T03:40:48;15.30;99.90
11660;DHT22;5886;58.356;12.744;2022-07-29T03:43:16;16.10;99.90
11660;DHT22;5886;58.356;12.744;2022-07-29T03:45:45;16.90;99.90
11660;DHT22;5886;58.356;12.744;2022-07-29T03:48:15;17.50;99.90
11660;DHT22;5886;58.356;12.744;2022-07-29T03:50:41;18.10;99.90
11660;DHT22;5886;58.356;12.744;2022-07-29T03:53:07;18.50;99.90
11660;DHT22;5886;58.356;12.744;2022-07-29T03:55:40;18.40;99.90
11660;DHT22;5886;58.356;12.744;2022-07-29T03:58:07;17.60;99.90
11660;DHT22;5886;58.356;12.744;2022-07-29T04:00:34;17.10;99.90
11660;DHT22;5886;58.356;12.744;2022-07-29T04:03:04;17.30;99.90
11660;DHT22;5886;58.356;12.744;2022-07-29T04:05:30;17.80;99.90
11660;DHT22;5886;58.356;12.744;2022-07-29T04:07:56;18.30;99.90
11660;DHT22;5886;58.356;12.744;2022-07-29T04:10:22;18.70;99.90
11660;DHT22;5886;58.356;12.744;2022-07-29T04:12:49;19.40;99.90
11660;DHT22;5886;58.356;12.744;2022-07-29T04:15:15;19.50;99.90
11660;DHT22;5886;58.356;12.744;2022-07-29T04:17:41;19.40;99.90
11660;DHT22;5886;58.356;12.744;2022-07-29T04:20:07;19.00;99.90
11660;DHT22;5886;58.356;12.744;2022-07-29T04:22:33;18.40;99.90
11660;DHT22;5886;58.356;12.744;2022-07-29T04:24:59;17.70;99.90
11660;DHT22;5886;58.356;12.744;2022-07-29T04:27:25;16.90;99.90
11660;DHT22;5886;58.356;12.744;2022-07-29T04:29:51;16.20;99.90
11660;DHT22;5886;58.356;12.744;2022-07-29T04:32:17;15.80;99.90
11660;DHT22;5886;58.356;12.744;2022-07-29T04:34:43;15.60;99.90
11660;DHT22;5886;58.356;12.744;2022-07-29T04:37:10;15.70;99.90
11660;DHT22;5886;58.356;12.744;2022-07-29T04:39:36;15.70;99.90
11660;DHT22;5886;58.356;12.744;2022-07-29T04:42:02;15.50;99.90
11660;DHT22;5886;58.356;12.744;2022-07-29T04:44:28;15.20;99.90
11660;DHT22;5886;58.356;12.744;2022-07-29T04:46:54;15.10;99.90
11660;DHT22;5886;58.356;12.744;2022-07-29T04:49:20;15.00;99.90
11660;DHT22;5886;58.356;12.744;2022-07-29T04:51:46;14.90;99.90
11660;DHT22;5886;58.356;12.744;2022-07-29T04:54:11;14.80;99.90
11660;DHT22;5886;58.356;12.744;2022-07-29T04:56:37;14.90;99.90
11660;DHT22;5886;58.356;12.744;2022-07-29T04:59:03;15.30;99.90
11660;DHT22;5886;58.356;12.744;2022-07-29T05:01:29;15.70;99.90
11660;DHT22;5886;58.356;12.744;2022-07-29T05:03:55;15.80;99.90
11660;DHT22;5886;58.356;12.744;2022-07-29T05:06:21;16.20;99.90
11660;DHT22;5886;58.356;12.744;2022-07-29T05:08:46;17.10;99.90
11660;DHT22;5886;58.356;12.744;2022-07-29T05:11:12;18.60;99.90
11660;DHT22;5886;58.356;12.744;2022-07-29T05:13:39;20.10;99.90
11660;DHT22;5886;58.356;12.744;2022-07-29T05:16:05;21.50;99.90
11660;DHT22;5886;58.356;12.744;2022-07-29T05:18:30;22.80;99.90
11660;DHT22;5886;58.356;12.744;2022-07-29T05:20:56;23.70;99.90
11660;DHT22;5886;58.356;12.744;2022-07-29T05:23:22;24.10;99.90
11660;DHT22;5886;58.356;12.744;2022-07-29T05:25:48;24.50;99.90
11660;DHT22;5886;58.356;12.744;2022-07-29T05:28:14;24.90;99.90
11660;DHT22;5886;58.356;12.744;2022-07-29T05:30:40;25.50;99.90
11660;DHT22;5886;58.356;12.744;2022-07-29T05:33:06;26.20;99.90
11660;DHT22;5886;58.356;12.744;2022-07-29T05:35:32;27.10;99.90
11660;DHT22;5886;58.356;12.744;2022-07-29T05:38:00;27.50;99.90
11660;DHT22;5886;58.356;12.744;2022-07-29T05:40:26;27.40;99.90
11660;DHT22;5886;58.356;12.744;2022-07-29T05:42:52;27.50;99.90
11660;DHT22;5886;58.356;12.744;2022-07-29T05:45:17;27.60;99.90
11660;DHT22;5886;58.356;12.744;2022-07-29T05:47:43;27.60;99.90
11660;DHT22;5886;58.356;12.744;2022-07-29T05:50:09;27.40;99.90
11660;DHT22;5886;58.356;12.744;2022-07-29T05:52:35;27.40;99.90
11660;DHT22;5886;58.356;12.744;2022-07-29T05:55:01;27.50;99.90
11660;DHT22;5886;58.356;12.744;2022-07-29T05:57:29;27.50;99.90
11660;DHT22;5886;58.356;12.744;2022-07-29T05:59:56;27.50;99.90
11660;DHT22;5886;58.356;12.744;2022-07-29T06:02:22;27.00;99.90
11660;DHT22;5886;58.356;12.744;2022-07-29T06:04:48;26.20;99.90
11660;DHT22;5886;58.356;12.744;2022-07-29T06:07:15;25.50;99.90
11660;DHT22;5886;58.356;12.744;2022-07-29T06:09:43;25.40;99.90
11660;DHT22;5886;58.356;12.744;2022-07-29T06:12:12;25.60;99.90
11660;DHT22;5886;58.356;12.744;2022-07-29T06:14:45;25.50;99.90
11660;DHT22;5886;58.356;12.744;2022-07-29T06:17:12;24.90;99.90
11660;DHT22;5886;58.356;12.744;2022-07-29T06:19:38;24.20;99.90
11660;DHT22;5886;58.356;12.744;2022-07-29T06:22:05;23.90;99.90
11660;DHT22;5886;58.356;12.744;2022-07-29T06:24:37;23.90;99.90
11660;DHT22;5886;58.356;12.744;2022-07-29T06:27:15;24.40;99.90
11660;DHT22;5886;58.356;12.744;2022-07-29T06:29:49;24.80;99.90
11660;DHT22;5886;58.356;12.744;2022-07-29T06:32:14;25.10;99.90
11660;DHT22;5886;58.356;12.744;2022-07-29T06:34:40;25.40;99.90
11660;DHT22;5886;58.356;12.744;2022-07-29T06:37:07;25.50;99.90
11660;DHT22;5886;58.356;12.744;2022-07-29T06:39:35;25.80;99.90
11660;DHT22;5886;58.356;12.744;2022-07-29T06:42:03;26.40;99.90
11660;DHT22;5886;58.356;12.744;2022-07-29T06:44:29;26.80;99.90
11660;DHT22;5886;58.356;12.744;2022-07-29T06:46:55;27.00;99.90
11660;DHT22;5886;58.356;12.744;2022-07-29T06:49:24;27.60;99.90
11660;DHT22;5886;58.356;12.744;2022-07-29T06:52:08;28.30;99.90
11660;DHT22;5886;58.356;12.744;2022-07-29T06:54:34;28.30;99.90
11660;DHT22;5886;58.356;12.744;2022-07-29T06:57:24;28.50;99.90
11660;DHT22;5886;58.356;12.744;2022-07-29T06:59:57;28.50;99.90
11660;DHT22;5886;58.356;12.744;2022-07-29T07:02:33;28.80;99.90
11660;DHT22;5886;58.356;12.744;2022-07-29T07:04:59;28.90;99.90
11660;DHT22;5886;58.356;12.744;2022-07-29T07:07:25;28.80;99.80
11660;DHT22;5886;58.356;12.744;2022-07-29T07:09:51;29.00;99.00
11660;DHT22;5886;58.356;12.744;2022-07-29T07:12:17;29.10;98.10
11660;DHT22;5886;58.356;12.744;2022-07-29T07:14:43;28.90;96.60
11660;DHT22;5886;58.356;12.744;2022-07-29T07:17:09;28.60;97.20
11660;DHT22;5886;58.356;12.744;2022-07-29T07:19:35;28.40;96.80
11660;DHT22;5886;58.356;12.744;2022-07-29T07:22:01;28.40;96.70
11660;DHT22;5886;58.356;12.744;2022-07-29T07:24:30;28.50;96.60
11660;DHT22;5886;58.356;12.744;2022-07-29T07:27:11;28.70;95.80
11660;DHT22;5886;58.356;12.744;2022-07-29T07:29:57;29.10;95.40
11660;DHT22;5886;58.356;12.744;2022-07-29T07:32:23;29.40;95.00
11660;DHT22;5886;58.356;12.744;2022-07-29T07:34:49;29.40;93.60
11660;DHT22;5886;58.356;12.744;2022-07-29T07:37:15;29.20;93.90
11660;DHT22;5886;58.356;12.744;2022-07-29T07:39:41;28.70;94.70
11660;DHT22;5886;58.356;12.744;2022-07-29T07:52:32;28.70;93.80
11660;DHT22;5886;58.356;12.744;2022-07-29T07:55:45;28.50;94.30
11660;DHT22;5886;58.356;12.744;2022-07-29T08:01:44;28.00;95.40
11660;DHT22;5886;58.356;12.744;2022-07-29T08:04:20;27.70;95.50
11660;DHT22;5886;58.356;12.744;2022-07-29T08:10:02;26.90;96.30
11660;DHT22;5886;58.356;12.744;2022-07-29T08:12:28;26.70;96.10
11660;DHT22;5886;58.356;12.744;2022-07-29T08:14:54;26.60;96.70
11660;DHT22;5886;58.356;12.744;2022-07-29T08:17:29;26.50;96.80
11660;DHT22;5886;58.356;12.744;2022-07-29T08:19:55;26.60;96.40
11660;DHT22;5886;58.356;12.744;2022-07-29T08:22:49;26.60;96.90
11660;DHT22;5886;58.356;12.744;2022-07-29T08:25:23;26.80;95.50
11660;DHT22;5886;58.356;12.744;2022-07-29T08:27:49;26.70;96.00
11660;DHT22;5886;58.356;12.744;2022-07-29T08:30:15;26.60;96.20
11660;DHT22;5886;58.356;12.744;2022-07-29T08:33:00;26.70;96.30
11660;DHT22;5886;58.356;12.744;2022-07-29T08:35:38;26.80;95.70
11660;DHT22;5886;58.356;12.744;2022-07-29T08:38:07;27.10;96.20
11660;DHT22;5886;58.356;12.744;2022-07-29T08:40:35;27.30;96.10
11660;DHT22;5886;58.356;12.744;2022-07-29T08:43:14;27.50;95.30
11660;DHT22;5886;58.356;12.744;2022-07-29T08:45:50;27.60;95.60
11660;DHT22;5886;58.356;12.744;2022-07-29T08:48:22;27.60;95.40
11660;DHT22;5886;58.356;12.744;2022-07-29T08:50:53;27.60;95.60
11660;DHT22;5886;58.356;12.744;2022-07-29T08:53:29;27.60;94.80
11660;DHT22;5886;58.356;12.744;2022-07-29T08:56:17;27.70;93.90
11660;DHT22;5886;58.356;12.744;2022-07-29T08:59:14;27.60;93.90
11660;DHT22;5886;58.356;12.744;2022-07-29T09:01:43;27.80;92.90
11660;DHT22;5886;58.356;12.744;2022-07-29T09:04:11;27.40;93.80
11660;DHT22;5886;58.356;12.744;2022-07-29T09:06:41;27.20;93.50
11660;DHT22;5886;58.356;12.744;2022-07-29T09:09:14;27.10;94.20
11660;DHT22;5886;58.356;12.744;2022-07-29T09:11:41;27.20;94.50
11660;DHT22;5886;58.356;12.744;2022-07-29T09:14:08;27.00;95.40
11660;DHT22;5886;58.356;12.744;2022-07-29T09:16:55;26.90;95.50
11660;DHT22;5886;58.356;12.744;2022-07-29T09:19:26;27.10;95.50
11660;DHT22;5886;58.356;12.744;2022-07-29T09:21:53;27.10;94.30
11660;DHT22;5886;58.356;12.744;2022-07-29T09:24:27;27.00;94.00
11660;DHT22;5886;58.356;12.744;2022-07-29T09:26:54;26.90;94.00
11660;DHT22;5886;58.356;12.744;2022-07-29T09:29:22;26.90;95.60
11660;DHT22;5886;58.356;12.744;2022-07-29T09:31:58;27.20;95.50
11660;DHT22;5886;58.356;12.744;2022-07-29T09:34:45;27.50;96.50
11660;DHT22;5886;58.356;12.744;2022-07-29T09:37:11;27.80;95.30
11660;DHT22;5886;58.356;12.744;2022-07-29T09:39:53;27.70;93.70
11660;DHT22;5886;58.356;12.744;2022-07-29T09:42:39;27.90;94.70
11660;DHT22;5886;58.356;12.744;2022-07-29T09:45:34;28.40;93.70
11660;DHT22;5886;58.356;12.744;2022-07-29T09:48:22;28.80;93.40
11660;DHT22;5886;58.356;12.744;2022-07-29T09:50:50;28.90;93.80
11660;DHT22;5886;58.356;12.744;2022-07-29T09:53:42;28.70;94.30
11660;DHT22;5886;58.356;12.744;2022-07-29T09:56:08;29.00;94.60
11660;DHT22;5886;58.356;12.744;2022-07-29T09:58:36;28.80;92.90
11660;DHT22;5886;58.356;12.744;2022-07-29T10:01:02;29.00;94.00
11660;DHT22;5886;58.356;12.744;2022-07-29T10:03:29;29.10;94.00
11660;DHT22;5886;58.356;12.744;2022-07-29T10:06:10;29.30;94.00
11660;DHT22;5886;58.356;12.744;2022-07-29T10:08:37;29.50;92.20
11660;DHT22;5886;58.356;12.744;2022-07-29T10:11:15;29.50;93.20
11660;DHT22;5886;58.356;12.744;2022-07-29T10:13:42;29.70;92.20
11660;DHT22;5886;58.356;12.744;2022-07-29T10:16:09;29.50;92.90
11660;DHT22;5886;58.356;12.744;2022-07-29T10:18:37;29.50;92.30
11660;DHT22;5886;58.356;12.744;2022-07-29T10:21:04;29.70;92.80
11660;DHT22;5886;58.356;12.744;2022-07-29T10:23:30;29.70;92.00
11660;DHT22;5886;58.356;12.744;2022-07-29T10:25:57;29.70;92.40
11660;DHT22;5886;58.356;12.744;2022-07-29T10:28:38;30.00;92.20
11660;DHT22;5886;58.356;12.744;2022-07-29T10:31:06;30.20;90.20
11660;DHT22;5886;58.356;12.744;2022-07-29T10:34:07;30.20;92.30
11660;DHT22;5886;58.356;12.744;2022-07-29T10:36:54;30.30;92.10
11660;DHT22;5886;58.356;12.744;2022-07-29T10:43:17;30.00;90.00
11660;DHT22;5886;58.356;12.744;2022-07-29T10:45:48;28.80;88.70
11660;DHT22;5886;58.356;12.744;2022-07-29T10:48:16;28.40;90.70
11660;DHT22;5886;58.356;12.744;2022-07-29T10:54:10;28.80;91.20
11660;DHT22;5886;58.356;12.744;2022-07-29T10:56:35;28.90;90.90
11660;DHT22;5886;58.356;12.744;2022-07-29T11:01:52;27.50;90.90
11660;DHT22;5886;58.356;12.744;2022-07-29T11:10:53;25.50;93.40
11660;DHT22;5886;58.356;12.744;2022-07-29T11:16:14;24.70;96.40
11660;DHT22;5886;58.356;12.744;2022-07-29T11:21:38;24.20;96.00
11660;DHT22;5886;58.356;12.744;2022-07-29T11:24:30;24.20;97.00
11660;DHT22;5886;58.356;12.744;2022-07-29T11:27:21;24.20;97.90
11660;DHT22;5886;58.356;12.744;2022-07-29T11:30:00;24.20;98.00
11660;DHT22;5886;58.356;12.744;2022-07-29T11:32:37;24.20;97.50
11660;DHT22;5886;58.356;12.744;2022-07-29T11:35:22;24.20;97.80
11660;DHT22;5886;58.356;12.744;2022-07-29T11:38:23;24.10;98.40
11660;DHT22;5886;58.356;12.744;2022-07-29T11:41:22;24.00;99.40
11660;DHT22;5886;58.356;12.744;2022-07-29T11:43:55;23.90;99.70
11660;DHT22;5886;58.356;12.744;2022-07-29T11:46:43;23.70;99.90
11660;DHT22;5886;58.356;12.744;2022-07-29T11:49:12;23.80;99.90
11660;DHT22;5886;58.356;12.744;2022-07-29T11:51:39;23.90;99.90
11660;DHT22;5886;58.356;12.744;2022-07-29T11:54:09;24.00;99.90
11660;DHT22;5886;58.356;12.744;2022-07-29T11:56:39;24.10;99.90
11660;DHT22;5886;58.356;12.744;2022-07-29T11:59:12;24.00;99.20
11660;DHT22;5886;58.356;12.744;2022-07-29T12:01:52;24.00;99.80
11660;DHT22;5886;58.356;12.744;2022-07-29T12:04:19;23.90;99.90
11660;DHT22;5886;58.356;12.744;2022-07-29T12:06:51;23.90;99.90
11660;DHT22;5886;58.356;12.744;2022-07-29T12:09:19;23.90;99.30
11660;DHT22;5886;58.356;12.744;2022-07-29T12:11:46;23.80;99.90
11660;DHT22;5886;58.356;12.744;2022-07-29T12:14:32;23.80;99.90
11660;DHT22;5886;58.356;12.744;2022-07-29T12:16:59;23.70;99.90
11660;DHT22;5886;58.356;12.744;2022-07-29T12:19:26;23.70;99.90
11660;DHT22;5886;58.356;12.744;2022-07-29T12:21:53;23.80;99.90
11660;DHT22;5886;58.356;12.744;2022-07-29T12:24:25;24.00;99.90
11660;DHT22;5886;58.356;12.744;2022-07-29T12:26:52;24.00;99.90
11660;DHT22;5886;58.356;12.744;2022-07-29T12:29:18;24.10;99.30
11660;DHT22;5886;58.356;12.744;2022-07-29T12:31:45;24.20;98.80
11660;DHT22;5886;58.356;12.744;2022-07-29T12:34:13;24.30;99.50
11660;DHT22;5886;58.356;12.744;2022-07-29T12:36:43;24.30;98.70
11660;DHT22;5886;58.356;12.744;2022-07-29T12:39:10;24.60;98.70
11660;DHT22;5886;58.356;12.744;2022-07-29T12:41:37;24.70;98.10
11660;DHT22;5886;58.356;12.744;2022-07-29T12:44:03;24.70;98.00
11660;DHT22;5886;58.356;12.744;2022-07-29T12:46:29;24.80;98.50
11660;DHT22;5886;58.356;12.744;2022-07-29T12:48:55;24.80;98.20
11660;DHT22;5886;58.356;12.744;2022-07-29T12:51:48;24.60;97.30
11660;DHT22;5886;58.356;12.744;2022-07-29T12:54:14;24.40;99.70
11660;DHT22;5886;58.356;12.744;2022-07-29T12:56:45;24.20;98.50
11660;DHT22;5886;58.356;12.744;2022-07-29T12:59:21;24.00;99.10
11660;DHT22;5886;58.356;12.744;2022-07-29T13:01:49;23.80;98.10
11660;DHT22;5886;58.356;12.744;2022-07-29T13:04:27;23.80;97.60
11660;DHT22;5886;58.356;12.744;2022-07-29T13:09:39;23.80;99.20
11660;DHT22;5886;58.356;12.744;2022-07-29T13:12:12;23.80;99.90
11660;DHT22;5886;58.356;12.744;2022-07-29T13:14:46;23.70;99.10
11660;DHT22;5886;58.356;12.744;2022-07-29T13:17:14;23.70;99.00
11660;DHT22;5886;58.356;12.744;2022-07-29T13:19:46;23.70;99.30
11660;DHT22;5886;58.356;12.744;2022-07-29T13:22:15;23.70;98.90
11660;DHT22;5886;58.356;12.744;2022-07-29T13:27:18;23.70;98.90
11660;DHT22;5886;58.356;12.744;2022-07-29T13:29:44;23.70;99.30
11660;DHT22;5886;58.356;12.744;2022-07-29T13:32:12;23.80;99.90
11660;DHT22;5886;58.356;12.744;2022-07-29T13:34:39;24.00;99.90
11660;DHT22;5886;58.356;12.744;2022-07-29T13:37:06;24.30;99.80
11660;DHT22;5886;58.356;12.744;2022-07-29T13:39:32;24.70;98.90
11660;DHT22;5886;58.356;12.744;2022-07-29T13:41:59;24.90;96.50
11660;DHT22;5886;58.356;12.744;2022-07-29T13:44:25;24.90;95.80
11660;DHT22;5886;58.356;12.744;2022-07-29T13:46:51;24.80;96.30
11660;DHT22;5886;58.356;12.744;2022-07-29T13:49:23;24.80;96.60
11660;DHT22;5886;58.356;12.744;2022-07-29T13:51:59;24.80;96.80
11660;DHT22;5886;58.356;12.744;2022-07-29T13:54:32;24.70;95.90
11660;DHT22;5886;58.356;12.744;2022-07-29T13:56:58;24.70;96.00
11660;DHT22;5886;58.356;12.744;2022-07-29T13:59:27;24.80;95.90
11660;DHT22;5886;58.356;12.744;2022-07-29T14:02:06;25.10;96.00
11660;DHT22;5886;58.356;12.744;2022-07-29T14:04:32;25.40;94.70
11660;DHT22;5886;58.356;12.744;2022-07-29T14:07:00;25.90;94.80
11660;DHT22;5886;58.356;12.744;2022-07-29T14:09:28;26.20;94.80
11660;DHT22;5886;58.356;12.744;2022-07-29T14:11:55;26.50;94.80
11660;DHT22;5886;58.356;12.744;2022-07-29T14:14:24;26.90;93.80
11660;DHT22;5886;58.356;12.744;2022-07-29T14:16:57;27.00;94.10
11660;DHT22;5886;58.356;12.744;2022-07-29T14:19:23;26.70;93.40
11660;DHT22;5886;58.356;12.744;2022-07-29T14:21:49;26.30;94.20
11660;DHT22;5886;58.356;12.744;2022-07-29T14:24:15;25.90;94.90
11660;DHT22;5886;58.356;12.744;2022-07-29T14:26:42;25.80;95.10
11660;DHT22;5886;58.356;12.744;2022-07-29T14:29:08;25.60;95.50
11660;DHT22;5886;58.356;12.744;2022-07-29T14:31:34;25.20;95.30
11660;DHT22;5886;58.356;12.744;2022-07-29T14:34:00;24.90;95.20
11660;DHT22;5886;58.356;12.744;2022-07-29T14:36:26;24.70;95.90
11660;DHT22;5886;58.356;12.744;2022-07-29T14:38:53;24.40;96.50
11660;DHT22;5886;58.356;12.744;2022-07-29T14:41:21;24.20;97.80
11660;DHT22;5886;58.356;12.744;2022-07-29T14:43:48;24.10;98.60
11660;DHT22;5886;58.356;12.744;2022-07-29T14:46:14;24.00;99.10
11660;DHT22;5886;58.356;12.744;2022-07-29T14:48:40;23.90;98.50
11660;DHT22;5886;58.356;12.744;2022-07-29T14:51:06;23.80;98.30
11660;DHT22;5886;58.356;12.744;2022-07-29T14:53:31;23.80;98.10
11660;DHT22;5886;58.356;12.744;2022-07-29T14:55:58;23.80;98.20
11660;DHT22;5886;58.356;12.744;2022-07-29T14:58:24;23.90;98.10
11660;DHT22;5886;58.356;12.744;2022-07-29T15:00:50;24.10;98.00
11660;DHT22;5886;58.356;12.744;2022-07-29T15:03:21;24.40;97.20
11660;DHT22;5886;58.356;12.744;2022-07-29T15:05:58;24.80;96.40
11660;DHT22;5886;58.356;12.744;2022-07-29T15:08:24;25.30;96.20
11660;DHT22;5886;58.356;12.744;2022-07-29T15:10:50;25.60;95.50
11660;DHT22;5886;58.356;12.744;2022-07-29T15:13:17;25.90;94.10
11660;DHT22;5886;58.356;12.744;2022-07-29T15:15:42;26.00;94.00
11660;DHT22;5886;58.356;12.744;2022-07-29T15:18:09;26.00;93.70
11660;DHT22;5886;58.356;12.744;2022-07-29T15:20:35;26.00;93.60
11660;DHT22;5886;58.356;12.744;2022-07-29T15:23:01;25.90;93.70
11660;DHT22;5886;58.356;12.744;2022-07-29T15:25:27;26.00;93.70
11660;DHT22;5886;58.356;12.744;2022-07-29T15:27:53;26.20;94.10
11660;DHT22;5886;58.356;12.744;2022-07-29T15:30:19;26.20;93.60
11660;DHT22;5886;58.356;12.744;2022-07-29T15:32:45;26.10;93.70
11660;DHT22;5886;58.356;12.744;2022-07-29T15:35:11;26.00;94.70
11660;DHT22;5886;58.356;12.744;2022-07-29T15:37:41;25.90;94.50
11660;DHT22;5886;58.356;12.744;2022-07-29T15:40:12;25.80;94.40
11660;DHT22;5886;58.356;12.744;2022-07-29T15:42:38;25.70;94.20
11660;DHT22;5886;58.356;12.744;2022-07-29T15:45:04;25.60;94.30
11660;DHT22;5886;58.356;12.744;2022-07-29T15:47:34;25.50;94.10
11660;DHT22;5886;58.356;12.744;2022-07-29T15:50:01;25.50;94.00
11660;DHT22;5886;58.356;12.744;2022-07-29T15:52:32;25.40;94.60
11660;DHT22;5886;58.356;12.744;2022-07-29T15:54:58;25.30;95.20
11660;DHT22;5886;58.356;12.744;2022-07-29T15:57:25;25.20;95.90
11660;DHT22;5886;58.356;12.744;2022-07-29T15:59:53;25.10;96.20
11660;DHT22;5886;58.356;12.744;2022-07-29T16:02:20;25.00;97.00
11660;DHT22;5886;58.356;12.744;2022-07-29T16:04:47;24.90;97.80
11660;DHT22;5886;58.356;12.744;2022-07-29T16:07:13;24.70;98.50
11660;DHT22;5886;58.356;12.744;2022-07-29T16:09:41;24.60;97.30
11660;DHT22;5886;58.356;12.744;2022-07-29T16:12:07;24.50;97.20
11660;DHT22;5886;58.356;12.744;2022-07-29T16:14:33;24.40;98.20
11660;DHT22;5886;58.356;12.744;2022-07-29T16:16:59;24.30;99.30
11660;DHT22;5886;58.356;12.744;2022-07-29T16:19:31;24.10;99.90
11660;DHT22;5886;58.356;12.744;2022-07-29T16:21:57;24.00;99.90
11660;DHT22;5886;58.356;12.744;2022-07-29T16:24:23;23.80;99.90
11660;DHT22;5886;58.356;12.744;2022-07-29T16:26:54;23.70;99.90
11660;DHT22;5886;58.356;12.744;2022-07-29T16:29:20;23.50;99.90
11660;DHT22;5886;58.356;12.744;2022-07-29T16:31:47;23.40;99.70
11660;DHT22;5886;58.356;12.744;2022-07-29T16:34:14;23.20;99.90
11660;DHT22;5886;58.356;12.744;2022-07-29T16:36:40;23.10;99.90
11660;DHT22;5886;58.356;12.744;2022-07-29T16:39:06;23.00;99.90
11660;DHT22;5886;58.356;12.744;2022-07-29T16:41:35;22.90;99.90
11660;DHT22;5886;58.356;12.744;2022-07-29T16:44:01;22.80;99.90
11660;DHT22;5886;58.356;12.744;2022-07-29T16:46:27;22.70;99.90